sensor_id;sensor_type;location;lat;lon;timestamp;temperature;humidity
3172;DHT22;1597;51.572;6.992;2022-07-21T00:01:50;21.00;99.90
3172;DHT22;1597;51.572;6.992;2022-07-21T00:04:17;21.00;99.90
3172;DHT22;1597;51.572;6.992;2022-07-21T00:06:44;21.00;99.90
3172;DHT22;1597;51.572;6.992;2022-07-21T00:09:12;21.10;99.90
3172;DHT22;1597;51.572;6.992;2022-07-21T00:11:38;21.10;99.90
3172;DHT22;1597;51.572;6.992;2022-07-21T00:14:09;21.20;99.90
3172;DHT22;1597;51.572;6.992;2022-07-21T00:16:36;21.20;99.90
3172;DHT22;1597;51.572;6.992;2022-07-21T00:19:02;21.20;99.90
3172;DHT22;1597;51.572;6.992;2022-07-21T00:21:28;21.20;99.90
3172;DHT22;1597;51.572;6.992;2022-07-21T00:23:54;21.20;99.90
3172;DHT22;1597;51.572;6.992;2022-07-21T00:26:20;21.10;99.90
3172;DHT22;1597;51.572;6.992;2022-07-21T00:28:47;21.10;99.90
3172;DHT22;1597;51.572;6.992;2022-07-21T00:31:13;21.00;99.90
3172;DHT22;1597;51.572;6.992;2022-07-21T00:33:41;21.00;99.90
3172;DHT22;1597;51.572;6.992;2022-07-21T00:36:07;21.00;99.90
3172;DHT22;1597;51.572;6.992;2022-07-21T00:38:33;21.00;99.90
3172;DHT22;1597;51.572;6.992;2022-07-21T00:40:58;21.00;99.90
3172;DHT22;1597;51.572;6.992;2022-07-21T00:43:24;20.90;99.90
3172;DHT22;1597;51.572;6.992;2022-07-21T00:45:53;20.90;99.90
3172;DHT22;1597;51.572;6.992;2022-07-21T00:48:19;20.90;99.90
3172;DHT22;1597;51.572;6.992;2022-07-21T00:50:45;20.90;99.90
3172;DHT22;1597;51.572;6.992;2022-07-21T00:53:11;20.90;99.90
3172;DHT22;1597;51.572;6.992;2022-07-21T00:55:37;21.00;99.90
3172;DHT22;1597;51.572;6.992;2022-07-21T00:58:07;21.00;99.90
3172;DHT22;1597;51.572;6.992;2022-07-21T01:00:33;21.00;99.90
3172;DHT22;1597;51.572;6.992;2022-07-21T01:02:59;21.00;99.90
3172;DHT22;1597;51.572;6.992;2022-07-21T01:05:25;20.90;99.90
3172;DHT22;1597;51.572;6.992;2022-07-21T01:07:53;20.90;99.90
3172;DHT22;1597;51.572;6.992;2022-07-21T01:10:22;20.80;99.90
3172;DHT22;1597;51.572;6.992;2022-07-21T01:12:49;20.90;99.90
3172;DHT22;1597;51.572;6.992;2022-07-21T01:15:17;20.90;99.90
3172;DHT22;1597;51.572;6.992;2022-07-21T01:17:44;20.90;99.90
3172;DHT22;1597;51.572;6.992;2022-07-21T01:20:13;20.90;99.90
3172;DHT22;1597;51.572;6.992;2022-07-21T01:22:42;20.90;99.90
3172;DHT22;1597;51.572;6.992;2022-07-21T01:25:10;20.90;99.90
3172;DHT22;1597;51.572;6.992;2022-07-21T01:27:36;20.70;99.90
3172;DHT22;1597;51.572;6.992;2022-07-21T01:30:05;20.70;99.90
3172;DHT22;1597;51.572;6.992;2022-07-21T01:32:36;20.70;99.90
3172;DHT22;1597;51.572;6.992;2022-07-21T01:35:05;20.70;99.90
3172;DHT22;1597;51.572;6.992;2022-07-21T01:37:38;20.70;99.90
3172;DHT22;1597;51.572;6.992;2022-07-21T01:40:08;20.70;99.90
3172;DHT22;1597;51.572;6.992;2022-07-21T01:42:52;20.80;99.90
3172;DHT22;1597;51.572;6.992;2022-07-21T01:45:20;20.80;99.90
3172;DHT22;1597;51.572;6.992;2022-07-21T01:47:46;20.80;99.90
3172;DHT22;1597;51.572;6.992;2022-07-21T01:50:12;20.70;99.90
3172;DHT22;1597;51.572;6.992;2022-07-21T01:52:38;20.60;99.90
3172;DHT22;1597;51.572;6.992;2022-07-21T01:55:04;20.60;99.90
3172;DHT22;1597;51.572;6.992;2022-07-21T01:57:30;20.50;99.90
3172;DHT22;1597;51.572;6.992;2022-07-21T01:59:56;20.50;99.90
3172;DHT22;1597;51.572;6.992;2022-07-21T02:02:22;20.40;99.90
3172;DHT22;1597;51.572;6.992;2022-07-21T02:04:48;20.40;99.90
3172;DHT22;1597;51.572;6.992;2022-07-21T02:07:15;20.30;99.90
3172;DHT22;1597;51.572;6.992;2022-07-21T02:09:41;20.40;99.90
3172;DHT22;1597;51.572;6.992;2022-07-21T02:12:07;20.40;99.90
3172;DHT22;1597;51.572;6.992;2022-07-21T02:14:34;20.30;99.90
3172;DHT22;1597;51.572;6.992;2022-07-21T02:17:00;20.30;99.90
3172;DHT22;1597;51.572;6.992;2022-07-21T02:19:26;20.30;99.90
3172;DHT22;1597;51.572;6.992;2022-07-21T02:21:52;20.20;99.90
3172;DHT22;1597;51.572;6.992;2022-07-21T02:24:17;20.30;99.90
3172;DHT22;1597;51.572;6.992;2022-07-21T02:26:43;20.30;99.90
3172;DHT22;1597;51.572;6.992;2022-07-21T02:29:09;20.20;99.90
3172;DHT22;1597;51.572;6.992;2022-07-21T02:31:35;20.20;99.90
3172;DHT22;1597;51.572;6.992;2022-07-21T02:34:00;20.20;99.90
3172;DHT22;1597;51.572;6.992;2022-07-21T02:36:26;20.20;99.90
3172;DHT22;1597;51.572;6.992;2022-07-21T02:38:52;20.20;99.90
3172;DHT22;1597;51.572;6.992;2022-07-21T02:41:18;20.10;99.90
3172;DHT22;1597;51.572;6.992;2022-07-21T02:43:43;20.20;99.90
3172;DHT22;1597;51.572;6.992;2022-07-21T02:46:09;20.20;99.90
3172;DHT22;1597;51.572;6.992;2022-07-21T02:48:35;20.20;99.90
3172;DHT22;1597;51.572;6.992;2022-07-21T02:51:01;20.10;99.90
3172;DHT22;1597;51.572;6.992;2022-07-21T02:53:26;20.10;99.90
3172;DHT22;1597;51.572;6.992;2022-07-21T02:55:53;20.10;99.90
3172;DHT22;1597;51.572;6.992;2022-07-21T02:58:22;20.10;99.90
3172;DHT22;1597;51.572;6.992;2022-07-21T03:00:57;20.10;99.90
3172;DHT22;1597;51.572;6.992;2022-07-21T03:03:32;20.10;99.90
3172;DHT22;1597;51.572;6.992;2022-07-21T03:06:00;20.10;99.90
3172;DHT22;1597;51.572;6.992;2022-07-21T03:08:27;20.00;99.90
3172;DHT22;1597;51.572;6.992;2022-07-21T03:10:54;19.90;99.90
3172;DHT22;1597;51.572;6.992;2022-07-21T03:13:21;19.90;99.90
3172;DHT22;1597;51.572;6.992;2022-07-21T03:15:47;19.90;99.90
3172;DHT22;1597;51.572;6.992;2022-07-21T03:18:13;19.90;99.90
3172;DHT22;1597;51.572;6.992;2022-07-21T03:20:43;19.90;99.90
3172;DHT22;1597;51.572;6.992;2022-07-21T03:23:10;19.90;99.90
3172;DHT22;1597;51.572;6.992;2022-07-21T03:25:36;19.90;99.90
3172;DHT22;1597;51.572;6.992;2022-07-21T03:28:03;19.90;99.90
3172;DHT22;1597;51.572;6.992;2022-07-21T03:30:32;19.90;99.90
3172;DHT22;1597;51.572;6.992;2022-07-21T03:32:58;19.80;99.90
3172;DHT22;1597;51.572;6.992;2022-07-21T03:35:24;19.80;99.90
3172;DHT22;1597;51.572;6.992;2022-07-21T03:37:57;19.90;99.90
3172;DHT22;1597;51.572;6.992;2022-07-21T03:40:28;19.80;99.90
3172;DHT22;1597;51.572;6.992;2022-07-21T03:42:59;19.80;99.90
3172;DHT22;1597;51.572;6.992;2022-07-21T03:45:26;19.80;99.90
3172;DHT22;1597;51.572;6.992;2022-07-21T03:47:59;19.80;99.90
3172;DHT22;1597;51.572;6.992;2022-07-21T03:50:27;19.80;99.90
3172;DHT22;1597;51.572;6.992;2022-07-21T03:52:53;19.70;99.90
3172;DHT22;1597;51.572;6.992;2022-07-21T03:55:20;19.70;99.90
3172;DHT22;1597;51.572;6.992;2022-07-21T03:57:51;19.70;99.90
3172;DHT22;1597;51.572;6.992;2022-07-21T04:00:27;19.70;99.90
3172;DHT22;1597;51.572;6.992;2022-07-21T04:02:54;19.70;99.90
3172;DHT22;1597;51.572;6.992;2022-07-21T04:05:21;19.70;99.90
3172;DHT22;1597;51.572;6.992;2022-07-21T04:07:48;19.70;99.90
3172;DHT22;1597;51.572;6.992;2022-07-21T04:10:18;19.70;99.90
3172;DHT22;1597;51.572;6.992;2022-07-21T04:12:45;19.70;99.90
3172;DHT22;1597;51.572;6.992;2022-07-21T04:15:12;19.70;99.90
3172;DHT22;1597;51.572;6.992;2022-07-21T04:17:39;19.70;99.90
3172;DHT22;1597;51.572;6.992;2022-07-21T04:20:06;19.70;99.90
3172;DHT22;1597;51.572;6.992;2022-07-21T04:22:33;19.70;99.90
3172;DHT22;1597;51.572;6.992;2022-07-21T04:24:59;19.60;99.90
3172;DHT22;1597;51.572;6.992;2022-07-21T04:27:26;19.60;99.90
3172;DHT22;1597;51.572;6.992;2022-07-21T04:29:52;19.60;99.90
3172;DHT22;1597;51.572;6.992;2022-07-21T04:32:18;19.70;99.90
3172;DHT22;1597;51.572;6.992;2022-07-21T04:34:43;19.70;99.90
3172;DHT22;1597;51.572;6.992;2022-07-21T04:37:09;19.70;99.90
3172;DHT22;1597;51.572;6.992;2022-07-21T04:39:35;19.70;99.90
3172;DHT22;1597;51.572;6.992;2022-07-21T04:42:01;19.60;99.90
3172;DHT22;1597;51.572;6.992;2022-07-21T04:44:27;19.60;99.90
3172;DHT22;1597;51.572;6.992;2022-07-21T04:46:53;19.60;99.90
3172;DHT22;1597;51.572;6.992;2022-07-21T04:49:19;19.60;99.90
3172;DHT22;1597;51.572;6.992;2022-07-21T04:51:45;19.60;99.90
3172;DHT22;1597;51.572;6.992;2022-07-21T04:54:11;19.60;99.90
3172;DHT22;1597;51.572;6.992;2022-07-21T04:56:40;19.60;99.90
3172;DHT22;1597;51.572;6.992;2022-07-21T04:59:07;19.60;99.90
3172;DHT22;1597;51.572;6.992;2022-07-21T05:01:33;19.70;99.90
3172;DHT22;1597;51.572;6.992;2022-07-21T05:03:59;19.70;99.90
3172;DHT22;1597;51.572;6.992;2022-07-21T05:06:25;19.70;99.90
3172;DHT22;1597;51.572;6.992;2022-07-21T05:08:51;19.70;99.90
3172;DHT22;1597;51.572;6.992;2022-07-21T05:11:17;19.80;99.90
3172;DHT22;1597;51.572;6.992;2022-07-21T05:13:42;19.80;99.90
3172;DHT22;1597;51.572;6.992;2022-07-21T05:16:08;19.80;99.90
3172;DHT22;1597;51.572;6.992;2022-07-21T05:18:34;19.80;99.90
3172;DHT22;1597;51.572;6.992;2022-07-21T05:21:00;19.80;99.90
3172;DHT22;1597;51.572;6.992;2022-07-21T05:23:26;19.80;99.90
3172;DHT22;1597;51.572;6.992;2022-07-21T05:25:51;19.80;99.90
3172;DHT22;1597;51.572;6.992;2022-07-21T05:28:17;19.80;99.90
3172;DHT22;1597;51.572;6.992;2022-07-21T05:30:43;19.80;99.90
3172;DHT22;1597;51.572;6.992;2022-07-21T05:33:09;19.90;99.90
3172;DHT22;1597;51.572;6.992;2022-07-21T05:35:35;19.90;99.90
3172;DHT22;1597;51.572;6.992;2022-07-21T05:38:01;19.80;99.90
3172;DHT22;1597;51.572;6.992;2022-07-21T05:40:27;19.80;99.90
3172;DHT22;1597;51.572;6.992;2022-07-21T05:42:53;19.80;99.90
3172;DHT22;1597;51.572;6.992;2022-07-21T05:45:19;19.80;99.90
3172;DHT22;1597;51.572;6.992;2022-07-21T05:47:45;19.80;99.90
3172;DHT22;1597;51.572;6.992;2022-07-21T05:50:11;19.80;99.90
3172;DHT22;1597;51.572;6.992;2022-07-21T05:52:37;19.90;99.90
3172;DHT22;1597;51.572;6.992;2022-07-21T05:55:04;19.90;99.90
3172;DHT22;1597;51.572;6.992;2022-07-21T05:57:30;20.00;99.90
3172;DHT22;1597;51.572;6.992;2022-07-21T05:59:56;20.00;99.90
3172;DHT22;1597;51.572;6.992;2022-07-21T06:02:24;20.00;99.90
3172;DHT22;1597;51.572;6.992;2022-07-21T06:04:51;20.00;99.90
3172;DHT22;1597;51.572;6.992;2022-07-21T06:07:17;20.00;99.90
3172;DHT22;1597;51.572;6.992;2022-07-21T06:09:43;20.10;99.90
3172;DHT22;1597;51.572;6.992;2022-07-21T06:12:08;20.10;99.90
3172;DHT22;1597;51.572;6.992;2022-07-21T06:14:35;20.00;99.90
3172;DHT22;1597;51.572;6.992;2022-07-21T06:17:01;20.00;99.90
3172;DHT22;1597;51.572;6.992;2022-07-21T06:19:27;20.00;99.90
3172;DHT22;1597;51.572;6.992;2022-07-21T06:21:53;19.90;99.90
3172;DHT22;1597;51.572;6.992;2022-07-21T06:24:19;20.00;99.90
3172;DHT22;1597;51.572;6.992;2022-07-21T06:26:47;20.00;99.90
3172;DHT22;1597;51.572;6.992;2022-07-21T06:29:14;19.90;99.90
3172;DHT22;1597;51.572;6.992;2022-07-21T06:31:40;20.00;99.90
3172;DHT22;1597;51.572;6.992;2022-07-21T06:34:06;20.00;99.90
3172;DHT22;1597;51.572;6.992;2022-07-21T06:36:32;20.00;99.90
3172;DHT22;1597;51.572;6.992;2022-07-21T06:38:58;20.10;99.90
3172;DHT22;1597;51.572;6.992;2022-07-21T06:41:24;20.10;99.90
3172;DHT22;1597;51.572;6.992;2022-07-21T06:43:50;20.10;99.90
3172;DHT22;1597;51.572;6.992;2022-07-21T06:46:16;20.00;99.90
3172;DHT22;1597;51.572;6.992;2022-07-21T06:48:41;19.90;99.90
3172;DHT22;1597;51.572;6.992;2022-07-21T06:51:07;20.00;99.90
3172;DHT22;1597;51.572;6.992;2022-07-21T06:53:33;19.90;99.90
3172;DHT22;1597;51.572;6.992;2022-07-21T06:55:59;20.00;99.90
3172;DHT22;1597;51.572;6.992;2022-07-21T06:58:25;20.00;99.90
3172;DHT22;1597;51.572;6.992;2022-07-21T07:00:52;20.10;99.90
3172;DHT22;1597;51.572;6.992;2022-07-21T07:03:19;20.10;99.90
3172;DHT22;1597;51.572;6.992;2022-07-21T07:05:46;20.20;99.90
3172;DHT22;1597;51.572;6.992;2022-07-21T07:08:13;20.30;99.90
3172;DHT22;1597;51.572;6.992;2022-07-21T07:10:42;20.40;99.90
3172;DHT22;1597;51.572;6.992;2022-07-21T07:13:09;20.40;99.90
3172;DHT22;1597;51.572;6.992;2022-07-21T07:15:35;20.40;99.90
3172;DHT22;1597;51.572;6.992;2022-07-21T07:18:01;20.40;99.90
3172;DHT22;1597;51.572;6.992;2022-07-21T07:20:27;20.40;99.90
3172;DHT22;1597;51.572;6.992;2022-07-21T07:22:54;20.40;99.90
3172;DHT22;1597;51.572;6.992;2022-07-21T07:25:20;20.40;99.90
3172;DHT22;1597;51.572;6.992;2022-07-21T07:27:50;20.50;99.90
3172;DHT22;1597;51.572;6.992;2022-07-21T07:30:18;20.50;99.90
3172;DHT22;1597;51.572;6.992;2022-07-21T07:32:45;20.60;99.90
3172;DHT22;1597;51.572;6.992;2022-07-21T07:35:13;20.60;99.90
3172;DHT22;1597;51.572;6.992;2022-07-21T07:37:40;20.70;99.90
3172;DHT22;1597;51.572;6.992;2022-07-21T07:40:11;20.80;99.90
3172;DHT22;1597;51.572;6.992;2022-07-21T07:42:39;20.80;99.90
3172;DHT22;1597;51.572;6.992;2022-07-21T07:45:07;20.90;99.90
3172;DHT22;1597;51.572;6.992;2022-07-21T07:47:34;20.90;99.90
3172;DHT22;1597;51.572;6.992;2022-07-21T07:50:00;20.90;99.90
3172;DHT22;1597;51.572;6.992;2022-07-21T07:52:28;20.90;99.90
3172;DHT22;1597;51.572;6.992;2022-07-21T07:54:54;21.00;99.90
3172;DHT22;1597;51.572;6.992;2022-07-21T07:57:20;21.00;99.90
3172;DHT22;1597;51.572;6.992;2022-07-21T07:59:46;21.00;99.90
3172;DHT22;1597;51.572;6.992;2022-07-21T08:02:12;21.10;99.90
3172;DHT22;1597;51.572;6.992;2022-07-21T08:04:38;21.10;99.90
3172;DHT22;1597;51.572;6.992;2022-07-21T08:07:07;21.10;99.90
3172;DHT22;1597;51.572;6.992;2022-07-21T08:09:33;21.20;99.90
3172;DHT22;1597;51.572;6.992;2022-07-21T08:12:01;21.20;99.90
3172;DHT22;1597;51.572;6.992;2022-07-21T08:14:28;21.20;99.90
3172;DHT22;1597;51.572;6.992;2022-07-21T08:16:54;21.20;99.90
3172;DHT22;1597;51.572;6.992;2022-07-21T08:19:20;21.20;99.90
3172;DHT22;1597;51.572;6.992;2022-07-21T08:21:46;21.30;99.90
3172;DHT22;1597;51.572;6.992;2022-07-21T08:24:12;21.30;99.90
3172;DHT22;1597;51.572;6.992;2022-07-21T08:26:38;21.30;99.90
3172;DHT22;1597;51.572;6.992;2022-07-21T08:29:03;21.30;99.90
3172;DHT22;1597;51.572;6.992;2022-07-21T08:31:30;21.30;99.90
3172;DHT22;1597;51.572;6.992;2022-07-21T08:33:56;21.30;99.90
3172;DHT22;1597;51.572;6.992;2022-07-21T08:36:22;21.30;99.90
3172;DHT22;1597;51.572;6.992;2022-07-21T08:38:48;21.30;99.90
3172;DHT22;1597;51.572;6.992;2022-07-21T08:41:14;21.30;99.90
3172;DHT22;1597;51.572;6.992;2022-07-21T08:43:41;21.30;99.90
3172;DHT22;1597;51.572;6.992;2022-07-21T08:46:07;21.40;99.90
3172;DHT22;1597;51.572;6.992;2022-07-21T08:48:33;21.50;99.90
3172;DHT22;1597;51.572;6.992;2022-07-21T08:50:58;21.60;99.90
3172;DHT22;1597;51.572;6.992;2022-07-21T08:53:25;21.70;99.90
3172;DHT22;1597;51.572;6.992;2022-07-21T08:55:52;21.70;99.90
3172;DHT22;1597;51.572;6.992;2022-07-21T08:58:18;21.80;99.90
3172;DHT22;1597;51.572;6.992;2022-07-21T09:00:49;21.80;99.90
3172;DHT22;1597;51.572;6.992;2022-07-21T09:03:21;21.90;99.90
3172;DHT22;1597;51.572;6.992;2022-07-21T09:06:05;21.90;99.90
3172;DHT22;1597;51.572;6.992;2022-07-21T09:08:45;21.90;99.90
3172;DHT22;1597;51.572;6.992;2022-07-21T09:13:50;21.80;99.90
3172;DHT22;1597;51.572;6.992;2022-07-21T09:16:46;21.80;99.90
3172;DHT22;1597;51.572;6.992;2022-07-21T09:19:29;21.90;99.90
3172;DHT22;1597;51.572;6.992;2022-07-21T09:22:00;22.00;99.90
3172;DHT22;1597;51.572;6.992;2022-07-21T09:24:31;22.10;99.90
3172;DHT22;1597;51.572;6.992;2022-07-21T09:27:09;22.10;99.90
3172;DHT22;1597;51.572;6.992;2022-07-21T09:32:17;22.30;99.90
3172;DHT22;1597;51.572;6.992;2022-07-21T09:34:45;22.30;99.90
3172;DHT22;1597;51.572;6.992;2022-07-21T09:37:14;22.40;99.90
3172;DHT22;1597;51.572;6.992;2022-07-21T09:39:52;22.40;99.90
3172;DHT22;1597;51.572;6.992;2022-07-21T09:42:24;22.00;99.90
3172;DHT22;1597;51.572;6.992;2022-07-21T09:44:59;22.40;99.90
3172;DHT22;1597;51.572;6.992;2022-07-21T09:47:30;22.40;99.90
3172;DHT22;1597;51.572;6.992;2022-07-21T09:49:58;22.40;99.90
3172;DHT22;1597;51.572;6.992;2022-07-21T09:52:34;22.40;99.90
3172;DHT22;1597;51.572;6.992;2022-07-21T09:55:12;22.30;99.90
3172;DHT22;1597;51.572;6.992;2022-07-21T09:57:41;22.30;99.90
3172;DHT22;1597;51.572;6.992;2022-07-21T10:00:11;22.40;99.90
3172;DHT22;1597;51.572;6.992;2022-07-21T10:02:43;22.30;99.90
3172;DHT22;1597;51.572;6.992;2022-07-21T10:05:19;22.30;99.90
3172;DHT22;1597;51.572;6.992;2022-07-21T10:07:49;22.30;99.90
3172;DHT22;1597;51.572;6.992;2022-07-21T10:10:17;22.40;99.90
3172;DHT22;1597;51.572;6.992;2022-07-21T10:12:45;22.40;99.90
3172;DHT22;1597;51.572;6.992;2022-07-21T10:15:11;22.50;99.90
3172;DHT22;1597;51.572;6.992;2022-07-21T10:17:38;22.50;99.90
3172;DHT22;1597;51.572;6.992;2022-07-21T10:20:24;22.50;99.90
3172;DHT22;1597;51.572;6.992;2022-07-21T10:25:54;22.60;99.90
3172;DHT22;1597;51.572;6.992;2022-07-21T10:28:21;22.60;99.90
3172;DHT22;1597;51.572;6.992;2022-07-21T10:30:54;22.50;99.90
3172;DHT22;1597;51.572;6.992;2022-07-21T10:41:55;22.40;99.90
3172;DHT22;1597;51.572;6.992;2022-07-21T10:47:18;22.20;99.90
3172;DHT22;1597;51.572;6.992;2022-07-21T10:57:47;21.80;99.90
3172;DHT22;1597;51.572;6.992;2022-07-21T11:00:27;21.80;99.90
3172;DHT22;1597;51.572;6.992;2022-07-21T11:02:59;21.70;99.90
3172;DHT22;1597;51.572;6.992;2022-07-21T11:05:30;21.60;99.90
3172;DHT22;1597;51.572;6.992;2022-07-21T11:08:18;21.60;99.90
3172;DHT22;1597;51.572;6.992;2022-07-21T11:10:53;21.50;99.90
3172;DHT22;1597;51.572;6.992;2022-07-21T11:13:21;21.50;99.90
3172;DHT22;1597;51.572;6.992;2022-07-21T11:15:55;21.50;99.90
3172;DHT22;1597;51.572;6.992;2022-07-21T11:18:28;21.40;99.90
3172;DHT22;1597;51.572;6.992;2022-07-21T11:21:09;21.40;99.90
3172;DHT22;1597;51.572;6.992;2022-07-21T11:23:40;21.30;99.90
3172;DHT22;1597;51.572;6.992;2022-07-21T11:26:19;21.30;99.90
3172;DHT22;1597;51.572;6.992;2022-07-21T11:29:04;21.20;99.90
3172;DHT22;1597;51.572;6.992;2022-07-21T11:31:31;21.10;99.90
3172;DHT22;1597;51.572;6.992;2022-07-21T11:33:58;21.10;99.90
3172;DHT22;1597;51.572;6.992;2022-07-21T11:36:26;20.70;99.90
3172;DHT22;1597;51.572;6.992;2022-07-21T11:39:04;20.80;99.90
3172;DHT22;1597;51.572;6.992;2022-07-21T11:41:33;20.80;99.90
3172;DHT22;1597;51.572;6.992;2022-07-21T11:44:00;20.70;99.90
3172;DHT22;1597;51.572;6.992;2022-07-21T11:46:26;20.80;99.90
3172;DHT22;1597;51.572;6.992;2022-07-21T11:49:03;20.70;99.90
3172;DHT22;1597;51.572;6.992;2022-07-21T11:51:31;20.70;99.90
3172;DHT22;1597;51.572;6.992;2022-07-21T11:53:57;20.60;99.90
3172;DHT22;1597;51.572;6.992;2022-07-21T11:56:23;20.60;99.90
3172;DHT22;1597;51.572;6.992;2022-07-21T11:58:49;20.60;99.90
3172;DHT22;1597;51.572;6.992;2022-07-21T12:01:16;20.60;99.90
3172;DHT22;1597;51.572;6.992;2022-07-21T12:03:51;20.50;99.90
3172;DHT22;1597;51.572;6.992;2022-07-21T12:06:18;20.50;99.90
3172;DHT22;1597;51.572;6.992;2022-07-21T12:08:45;20.50;99.90
3172;DHT22;1597;51.572;6.992;2022-07-21T12:11:11;20.60;99.90
3172;DHT22;1597;51.572;6.992;2022-07-21T12:13:54;20.50;99.90
3172;DHT22;1597;51.572;6.992;2022-07-21T12:16:21;20.50;99.90
3172;DHT22;1597;51.572;6.992;2022-07-21T12:18:48;20.60;99.90
3172;DHT22;1597;51.572;6.992;2022-07-21T12:21:14;20.50;99.90
3172;DHT22;1597;51.572;6.992;2022-07-21T12:23:40;20.50;99.90
3172;DHT22;1597;51.572;6.992;2022-07-21T12:26:20;20.50;99.90
3172;DHT22;1597;51.572;6.992;2022-07-21T12:28:50;20.50;99.90
3172;DHT22;1597;51.572;6.992;2022-07-21T12:31:22;20.60;99.90
3172;DHT22;1597;51.572;6.992;2022-07-21T12:33:55;20.60;99.90
3172;DHT22;1597;51.572;6.992;2022-07-21T12:36:21;20.60;99.90
3172;DHT22;1597;51.572;6.992;2022-07-21T12:38:49;20.50;99.90
3172;DHT22;1597;51.572;6.992;2022-07-21T12:41:20;20.50;99.90
3172;DHT22;1597;51.572;6.992;2022-07-21T12:43:57;20.40;99.90
3172;DHT22;1597;51.572;6.992;2022-07-21T12:46:31;20.50;99.90
3172;DHT22;1597;51.572;6.992;2022-07-21T12:49:06;20.50;99.90
3172;DHT22;1597;51.572;6.992;2022-07-21T12:51:36;20.50;99.90
3172;DHT22;1597;51.572;6.992;2022-07-21T12:54:02;20.40;99.90
3172;DHT22;1597;51.572;6.992;2022-07-21T12:56:32;20.40;99.90
3172;DHT22;1597;51.572;6.992;2022-07-21T12:59:00;20.40;99.90
3172;DHT22;1597;51.572;6.992;2022-07-21T13:01:29;20.40;99.90
3172;DHT22;1597;51.572;6.992;2022-07-21T13:03:57;20.50;99.90
3172;DHT22;1597;51.572;6.992;2022-07-21T13:06:23;20.50;99.90
3172;DHT22;1597;51.572;6.992;2022-07-21T13:08:49;20.50;99.90
3172;DHT22;1597;51.572;6.992;2022-07-21T13:11:17;20.50;99.90
3172;DHT22;1597;51.572;6.992;2022-07-21T13:13:46;20.40;99.90
3172;DHT22;1597;51.572;6.992;2022-07-21T13:16:13;20.30;99.90
3172;DHT22;1597;51.572;6.992;2022-07-21T13:18:39;20.30;99.90
3172;DHT22;1597;51.572;6.992;2022-07-21T13:21:05;20.20;99.90
3172;DHT22;1597;51.572;6.992;2022-07-21T13:23:31;20.20;99.90
3172;DHT22;1597;51.572;6.992;2022-07-21T13:25:57;20.20;99.90
3172;DHT22;1597;51.572;6.992;2022-07-21T13:28:23;20.20;99.90
3172;DHT22;1597;51.572;6.992;2022-07-21T13:30:49;20.30;99.90
3172;DHT22;1597;51.572;6.992;2022-07-21T13:33:15;20.30;99.90
3172;DHT22;1597;51.572;6.992;2022-07-21T13:35:42;20.30;99.90
3172;DHT22;1597;51.572;6.992;2022-07-21T13:38:08;20.30;99.90
3172;DHT22;1597;51.572;6.992;2022-07-21T13:40:35;20.30;99.90
3172;DHT22;1597;51.572;6.992;2022-07-21T13:43:03;20.30;99.90
3172;DHT22;1597;51.572;6.992;2022-07-21T13:45:29;20.30;99.90
3172;DHT22;1597;51.572;6.992;2022-07-21T13:47:55;20.30;99.90
3172;DHT22;1597;51.572;6.992;2022-07-21T13:50:21;20.40;99.90
3172;DHT22;1597;51.572;6.992;2022-07-21T13:52:47;20.30;99.90
3172;DHT22;1597;51.572;6.992;2022-07-21T13:55:13;20.30;99.90
3172;DHT22;1597;51.572;6.992;2022-07-21T13:57:39;20.30;99.90
3172;DHT22;1597;51.572;6.992;2022-07-21T14:00:07;20.30;99.90
3172;DHT22;1597;51.572;6.992;2022-07-21T14:02:35;20.30;99.90
3172;DHT22;1597;51.572;6.992;2022-07-21T14:05:03;20.30;99.90
3172;DHT22;1597;51.572;6.992;2022-07-21T14:07:29;20.20;99.90
3172;DHT22;1597;51.572;6.992;2022-07-21T14:09:55;20.20;99.90
3172;DHT22;1597;51.572;6.992;2022-07-21T14:12:22;20.20;99.90
3172;DHT22;1597;51.572;6.992;2022-07-21T14:14:48;20.20;99.90
3172;DHT22;1597;51.572;6.992;2022-07-21T14:17:15;20.30;99.90
3172;DHT22;1597;51.572;6.992;2022-07-21T14:19:43;20.20;99.90
3172;DHT22;1597;51.572;6.992;2022-07-21T14:22:11;20.20;99.90
3172;DHT22;1597;51.572;6.992;2022-07-21T14:24:37;20.20;99.90
3172;DHT22;1597;51.572;6.992;2022-07-21T14:27:22;20.10;99.90
3172;DHT22;1597;51.572;6.992;2022-07-21T14:29:48;20.00;99.90
3172;DHT22;1597;51.572;6.992;2022-07-21T14:32:14;20.00;99.90
3172;DHT22;1597;51.572;6.992;2022-07-21T14:34:41;20.00;99.90
3172;DHT22;1597;51.572;6.992;2022-07-21T14:37:07;20.00;99.90
3172;DHT22;1597;51.572;6.992;2022-07-21T14:39:34;20.00;99.90
3172;DHT22;1597;51.572;6.992;2022-07-21T14:42:00;20.00;99.90
3172;DHT22;1597;51.572;6.992;2022-07-21T14:44:26;20.00;99.90
3172;DHT22;1597;51.572;6.992;2022-07-21T14:46:53;19.90;99.90
3172;DHT22;1597;51.572;6.992;2022-07-21T14:49:19;19.90;99.90
3172;DHT22;1597;51.572;6.992;2022-07-21T14:51:44;19.90;99.90
3172;DHT22;1597;51.572;6.992;2022-07-21T14:54:10;19.90;99.90
3172;DHT22;1597;51.572;6.992;2022-07-21T14:56:37;19.90;99.90
3172;DHT22;1597;51.572;6.992;2022-07-21T14:59:03;19.90;99.90
3172;DHT22;1597;51.572;6.992;2022-07-21T15:01:29;19.80;99.90
3172;DHT22;1597;51.572;6.992;2022-07-21T15:03:55;19.80;99.90
3172;DHT22;1597;51.572;6.992;2022-07-21T15:06:21;19.70;99.90
3172;DHT22;1597;51.572;6.992;2022-07-21T15:08:47;19.80;99.90
3172;DHT22;1597;51.572;6.992;2022-07-21T15:11:14;19.80;99.90
3172;DHT22;1597;51.572;6.992;2022-07-21T15:13:43;19.70;99.90
3172;DHT22;1597;51.572;6.992;2022-07-21T15:16:09;19.70;99.90
3172;DHT22;1597;51.572;6.992;2022-07-21T15:18:35;19.70;99.90
3172;DHT22;1597;51.572;6.992;2022-07-21T15:21:03;19.60;99.90
3172;DHT22;1597;51.572;6.992;2022-07-21T15:23:28;19.70;99.90
3172;DHT22;1597;51.572;6.992;2022-07-21T15:25:54;19.70;99.90
3172;DHT22;1597;51.572;6.992;2022-07-21T15:28:20;19.70;99.90
3172;DHT22;1597;51.572;6.992;2022-07-21T15:30:46;19.70;99.90
3172;DHT22;1597;51.572;6.992;2022-07-21T15:33:12;19.80;99.90
3172;DHT22;1597;51.572;6.992;2022-07-21T15:35:38;19.80;99.90
3172;DHT22;1597;51.572;6.992;2022-07-21T15:38:04;19.80;99.90
3172;DHT22;1597;51.572;6.992;2022-07-21T15:40:31;19.80;99.90
3172;DHT22;1597;51.572;6.992;2022-07-21T15:42:57;19.80;99.90
3172;DHT22;1597;51.572;6.992;2022-07-21T15:45:23;19.80;99.90
3172;DHT22;1597;51.572;6.992;2022-07-21T15:47:49;19.90;99.90
3172;DHT22;1597;51.572;6.992;2022-07-21T15:50:15;19.90;99.90
3172;DHT22;1597;51.572;6.992;2022-07-21T15:52:41;19.90;99.90
3172;DHT22;1597;51.572;6.992;2022-07-21T15:55:08;19.80;99.90
3172;DHT22;1597;51.572;6.992;2022-07-21T15:57:36;19.80;99.90
3172;DHT22;1597;51.572;6.992;2022-07-21T16:00:08;19.80;99.90
3172;DHT22;1597;51.572;6.992;2022-07-21T16:02:35;19.80;99.90
3172;DHT22;1597;51.572;6.992;2022-07-21T16:05:02;19.80;99.90
3172;DHT22;1597;51.572;6.992;2022-07-21T16:07:30;19.80;99.90
3172;DHT22;1597;51.572;6.992;2022-07-21T16:09:56;19.70;99.90
3172;DHT22;1597;51.572;6.992;2022-07-21T16:12:21;19.70;99.90
3172;DHT22;1597;51.572;6.992;2022-07-21T16:14:48;19.60;99.90
3172;DHT22;1597;51.572;6.992;2022-07-21T16:17:19;19.60;99.90
3172;DHT22;1597;51.572;6.992;2022-07-21T16:19:45;19.50;99.90
3172;DHT22;1597;51.572;6.992;2022-07-21T16:22:11;19.50;99.90
3172;DHT22;1597;51.572;6.992;2022-07-21T16:24:38;19.40;99.90
3172;DHT22;1597;51.572;6.992;2022-07-21T16:27:05;19.30;99.90
3172;DHT22;1597;51.572;6.992;2022-07-21T16:29:36;19.30;99.90
3172;DHT22;1597;51.572;6.992;2022-07-21T16:32:03;19.50;99.90
3172;DHT22;1597;51.572;6.992;2022-07-21T16:34:31;19.40;99.90